createdAt,value
2017-11-16T00:01:17.903Z,86.27
2017-11-16T00:03:48.025Z,85.87
2017-11-16T00:06:18.019Z,86.10
2017-11-16T00:08:48.196Z,100.37
2017-11-16T00:11:18.279Z,94.23
2017-11-16T00:13:48.320Z,122.33
2017-11-16T00:16:18.321Z,108.83
2017-11-16T00:18:48.333Z,110.47
2017-11-16T00:21:18.555Z,110.47
2017-11-16T00:23:48.514Z,107.83
2017-11-16T00:26:18.603Z,101.47
2017-11-16T00:28:48.546Z,99.37
2017-11-16T00:31:18.717Z,103.17
2017-11-16T00:33:48.682Z,102.73
2017-11-16T00:36:18.766Z,104.93
2017-11-16T00:38:48.876Z,102.83
2017-11-16T00:41:18.789Z,106.40
2017-11-16T00:43:48.887Z,104.37
2017-11-16T00:46:18.971Z,93.57
2017-11-16T00:48:49.031Z,89.80
2017-11-16T00:51:18.985Z,97.57
2017-11-16T00:53:49.160Z,103.33
2017-11-16T00:56:19.154Z,96.00
2017-11-16T00:58:49.137Z,90.83
2017-11-16T01:01:19.315Z,106.30
2017-11-16T01:03:49.424Z,90.30
2017-11-16T01:06:20.004Z,88.77
2017-11-16T01:08:49.609Z,85.80
2017-11-16T01:11:19.464Z,90.10
2017-11-16T01:13:49.445Z,79.43
2017-11-16T01:16:19.633Z,81.43
2017-11-16T01:18:49.671Z,80.57
2017-11-16T01:21:19.681Z,88.63
2017-11-16T01:23:49.692Z,87.20
2017-11-16T01:26:19.876Z,80.80
2017-11-16T01:28:49.929Z,80.50
2017-11-16T01:31:20.103Z,78.87
2017-11-16T01:33:50.194Z,71.83
2017-11-16T01:36:20.191Z,72.47
2017-11-16T01:38:50.275Z,79.80
2017-11-16T01:41:20.323Z,77.03
2017-11-16T01:43:50.391Z,76.33
2017-11-16T01:46:20.497Z,70.93
2017-11-16T01:48:50.497Z,71.83
2017-11-16T01:51:21.300Z,72.80
2017-11-16T01:53:50.887Z,66.33
2017-11-16T01:56:20.552Z,74.30
2017-11-16T01:58:50.670Z,64.77
2017-11-16T02:01:20.684Z,78.37
2017-11-16T02:03:51.474Z,66.37
2017-11-16T02:06:21.027Z,62.03
2017-11-16T02:08:50.834Z,63.40
2017-11-16T02:11:20.856Z,67.23
2017-11-16T02:13:50.880Z,67.73
2017-11-16T02:16:20.967Z,75.13
2017-11-16T02:18:50.939Z,79.50
2017-11-16T02:21:21.128Z,71.87
2017-11-16T02:23:51.051Z,61.57
2017-11-16T02:26:21.325Z,64.70
2017-11-16T02:28:51.207Z,82.77
2017-11-16T02:31:21.330Z,84.00
2017-11-16T02:33:51.309Z,75.10
2017-11-16T02:36:21.381Z,74.30
2017-11-16T02:38:51.756Z,81.17
2017-11-16T02:41:21.487Z,81.77
2017-11-16T02:43:51.615Z,80.00
2017-11-16T02:46:21.643Z,69.40
2017-11-16T02:48:51.650Z,71.50
2017-11-16T02:51:21.912Z,75.60
2017-11-16T02:53:51.778Z,75.47
2017-11-16T02:56:22.007Z,78.70
2017-11-16T02:58:51.796Z,73.47
2017-11-16T03:01:21.852Z,69.67
2017-11-16T03:03:51.953Z,72.07
2017-11-16T03:06:21.958Z,55.67
2017-11-16T03:08:52.017Z,56.57
2017-11-16T03:11:22.070Z,56.60
2017-11-16T03:13:52.096Z,58.17
2017-11-16T03:16:22.122Z,58.07
2017-11-16T03:18:52.271Z,60.50
2017-11-16T03:21:22.227Z,55.37
2017-11-16T03:23:52.280Z,56.83
2017-11-16T03:26:22.484Z,51.60
2017-11-16T03:28:52.737Z,48.17
2017-11-16T03:31:22.798Z,47.80
2017-11-16T03:33:52.866Z,50.93
2017-11-16T03:36:22.805Z,46.10
2017-11-16T03:38:53.928Z,45.13
2017-11-16T03:41:23.813Z,46.00
2017-11-16T03:43:53.910Z,45.30
2017-11-16T03:46:24.756Z,41.07
2017-11-16T03:48:54.666Z,49.53
2017-11-16T03:51:24.612Z,43.70
2017-11-16T03:53:54.621Z,46.47
2017-11-16T03:56:24.766Z,39.43
2017-11-16T04:01:34.890Z,41.67
2017-11-16T04:04:04.772Z,38.87
2017-11-16T04:06:34.336Z,38.77
2017-11-16T04:09:03.913Z,35.17
2017-11-16T04:11:33.485Z,36.83
2017-11-16T04:14:03.627Z,40.03
2017-11-16T04:16:33.479Z,36.73
2017-11-16T04:19:03.626Z,39.77
2017-11-16T04:21:33.670Z,34.33
2017-11-16T04:24:03.929Z,29.53
2017-11-16T04:26:33.737Z,37.53
2017-11-16T04:29:03.755Z,33.93
2017-11-16T04:31:33.913Z,36.33
2017-11-16T04:34:04.039Z,38.17
2017-11-16T04:36:34.058Z,40.77
2017-11-16T04:39:04.074Z,36.03
2017-11-16T04:41:34.150Z,37.40
2017-11-16T04:44:04.210Z,38.60
2017-11-16T04:46:34.124Z,36.83
2017-11-16T04:49:04.174Z,37.83
2017-11-16T04:51:34.262Z,33.60
2017-11-16T04:54:04.278Z,36.00
2017-11-16T04:56:35.120Z,38.03
2017-11-16T04:59:04.778Z,38.80
2017-11-16T05:01:34.403Z,43.27
2017-11-16T05:04:04.458Z,50.33
2017-11-16T05:06:34.444Z,52.30
2017-11-16T05:09:04.571Z,51.80
2017-11-16T05:11:34.746Z,52.27
2017-11-16T05:14:05.022Z,47.63
2017-11-16T05:16:34.614Z,57.13
2017-11-16T05:19:05.615Z,48.57
2017-11-16T05:21:35.342Z,39.73
2017-11-16T05:24:04.872Z,40.70
2017-11-16T05:26:34.829Z,43.93
2017-11-16T05:29:04.887Z,48.17
2017-11-16T05:31:34.930Z,46.83
2017-11-16T05:34:04.949Z,38.20
2017-11-16T05:36:35.142Z,50.00
2017-11-16T05:39:05.083Z,49.67
2017-11-16T05:41:35.235Z,47.70
2017-11-16T05:44:05.151Z,45.50
2017-11-16T05:46:35.167Z,52.17
2017-11-16T05:49:05.254Z,44.93
2017-11-16T05:51:35.412Z,45.47
2017-11-16T05:54:05.431Z,43.53
2017-11-16T05:56:35.546Z,39.87
2017-11-16T05:59:05.564Z,35.47
2017-11-16T06:01:35.683Z,34.60
2017-11-16T06:04:06.257Z,69.03
2017-11-16T06:06:35.853Z,26.57
2017-11-16T06:09:06.042Z,21.33
2017-11-16T06:11:35.924Z,18.57
2017-11-16T06:14:05.984Z,21.13
2017-11-16T06:16:35.971Z,23.37
2017-11-16T06:19:06.101Z,24.93
2017-11-16T06:21:36.164Z,20.77
2017-11-16T06:24:06.199Z,21.67
2017-11-16T06:26:36.245Z,23.23
2017-11-16T06:29:06.276Z,17.63
2017-11-16T06:31:36.286Z,23.57
2017-11-16T06:34:06.537Z,24.10
2017-11-16T06:36:36.422Z,24.57
2017-11-16T06:39:06.739Z,24.63
2017-11-16T06:41:36.517Z,24.27
2017-11-16T06:44:06.676Z,26.27
2017-11-16T06:46:36.929Z,29.47
2017-11-16T06:49:06.737Z,32.03
2017-11-16T06:51:37.186Z,28.70
2017-11-16T06:54:06.843Z,38.17
2017-11-16T06:56:37.102Z,36.90
2017-11-16T06:59:07.214Z,30.07
2017-11-16T07:01:37.163Z,33.53
2017-11-16T07:04:07.252Z,42.13
2017-11-16T07:06:37.253Z,30.03
2017-11-16T07:09:07.289Z,40.47
2017-11-16T07:11:37.390Z,40.73
2017-11-16T07:14:07.419Z,38.43
2017-11-16T07:16:37.541Z,32.97
2017-11-16T07:19:07.535Z,40.83
2017-11-16T07:21:37.619Z,42.27
2017-11-16T07:24:07.690Z,44.73
2017-11-16T07:26:37.761Z,42.83
2017-11-16T07:29:07.858Z,37.23
2017-11-16T07:31:37.861Z,29.87
2017-11-16T07:34:07.899Z,34.00
2017-11-16T07:36:37.851Z,28.67
2017-11-16T07:39:07.982Z,25.63
2017-11-16T07:41:37.986Z,21.57
2017-11-16T07:44:08.239Z,21.60
2017-11-16T07:46:38.200Z,30.00
2017-11-16T07:49:08.210Z,30.17
2017-11-16T07:51:38.425Z,23.03
2017-11-16T07:54:08.314Z,23.77
2017-11-16T07:56:38.326Z,24.30
2017-11-16T07:59:08.582Z,34.83
2017-11-16T08:01:38.324Z,25.87
2017-11-16T08:04:08.817Z,23.43
2017-11-16T08:06:38.492Z,26.30
2017-11-16T08:09:08.605Z,24.73
2017-11-16T08:11:38.631Z,27.63
2017-11-16T08:14:08.818Z,41.23
2017-11-16T08:16:38.668Z,21.43
2017-11-16T08:19:08.777Z,17.57
2017-11-16T08:21:38.834Z,19.97
2017-11-16T08:24:08.946Z,22.37
2017-11-16T08:26:38.975Z,29.20
2017-11-16T08:29:08.985Z,23.23
2017-11-16T08:31:39.126Z,19.10
2017-11-16T08:34:09.046Z,20.37
2017-11-16T08:36:39.223Z,26.37
2017-11-16T08:39:09.277Z,21.97
2017-11-16T08:41:39.340Z,21.20
2017-11-16T08:44:09.283Z,22.20
2017-11-16T08:46:39.494Z,18.43
2017-11-16T08:49:09.591Z,16.73
2017-11-16T08:51:39.459Z,17.57
2017-11-16T08:54:09.583Z,18.53
2017-11-16T08:56:39.705Z,23.83
2017-11-16T08:59:09.864Z,19.83
2017-11-16T09:01:39.602Z,18.23
2017-11-16T09:04:09.930Z,25.30
2017-11-16T09:06:39.759Z,20.33
2017-11-16T09:09:10.002Z,17.77
2017-11-16T09:11:40.082Z,19.60
2017-11-16T09:14:10.129Z,19.57
2017-11-16T09:16:40.382Z,18.23
2017-11-16T09:19:10.602Z,22.03
2017-11-16T09:21:40.873Z,22.53
2017-11-16T09:24:14.411Z,24.83
2017-11-16T09:26:44.005Z,22.87
2017-11-16T09:29:13.617Z,29.15
2017-11-16T09:31:43.372Z,33.47
2017-11-16T09:34:13.327Z,37.70
2017-11-16T09:36:43.316Z,30.43
2017-11-16T09:39:13.445Z,34.20
2017-11-16T09:41:43.342Z,32.90
2017-11-16T09:44:13.513Z,33.60
2017-11-16T09:46:45.260Z,30.47
2017-11-16T09:49:15.318Z,44.07
2017-11-16T09:51:45.334Z,42.43
2017-11-16T09:54:15.512Z,31.40
2017-11-16T09:56:45.538Z,34.50
2017-11-16T09:59:15.490Z,44.13
2017-11-16T10:01:45.558Z,40.23
2017-11-16T10:04:15.606Z,43.03
2017-11-16T10:06:45.658Z,42.40
2017-11-16T10:09:15.675Z,42.33
2017-11-16T10:11:45.677Z,39.40
2017-11-16T10:14:15.777Z,43.60
2017-11-16T10:16:46.894Z,35.00
2017-11-16T10:19:17.046Z,35.03
2017-11-16T10:21:46.827Z,40.07
2017-11-16T10:24:16.864Z,36.87
2017-11-16T10:26:47.023Z,36.83
2017-11-16T10:29:16.979Z,37.60
2017-11-16T10:31:47.298Z,34.57
2017-11-16T10:34:17.100Z,39.33
2017-11-16T10:36:47.136Z,35.37
2017-11-16T10:39:17.241Z,36.00
2017-11-16T10:41:47.173Z,40.67
2017-11-16T10:44:17.564Z,43.70
2017-11-16T10:46:47.681Z,37.00
2017-11-16T10:49:17.821Z,43.80
2017-11-16T10:51:48.496Z,45.10
2017-11-16T10:54:18.174Z,42.10
2017-11-16T10:56:48.454Z,41.43
2017-11-16T10:59:19.261Z,41.87
2017-11-16T11:01:48.889Z,38.97
2017-11-16T11:04:18.436Z,40.07
2017-11-16T11:06:47.998Z,42.67
2017-11-16T11:09:18.034Z,44.40
2017-11-16T11:11:48.102Z,39.00
2017-11-16T11:14:18.560Z,39.73
2017-11-16T11:16:48.376Z,45.70
2017-11-16T11:19:18.246Z,41.37
2017-11-16T11:21:48.367Z,39.17
2017-11-16T11:24:18.395Z,39.30
2017-11-16T11:26:48.569Z,41.90
2017-11-16T11:29:18.759Z,40.03
2017-11-16T11:31:49.619Z,41.13
2017-11-16T11:34:19.198Z,39.23
2017-11-16T11:36:48.978Z,36.73
2017-11-16T11:39:19.052Z,33.30
2017-11-16T11:41:49.074Z,37.83
2017-11-16T11:44:19.091Z,37.67
2017-11-16T11:46:49.119Z,43.20
2017-11-16T11:49:19.195Z,42.90
2017-11-16T11:51:49.211Z,35.60
2017-11-16T11:54:19.420Z,36.90
2017-11-16T11:56:49.436Z,36.13
2017-11-16T11:59:19.457Z,36.97
2017-11-16T12:01:49.447Z,51.30
2017-11-16T12:04:19.609Z,35.40
2017-11-16T12:06:49.746Z,34.13
2017-11-16T12:09:19.850Z,40.83
2017-11-16T12:11:49.822Z,33.67
2017-11-16T12:14:19.863Z,36.90
2017-11-16T12:16:50.085Z,45.97
2017-11-16T12:19:19.861Z,41.00
2017-11-16T12:21:50.013Z,41.40
2017-11-16T12:24:20.272Z,44.13
2017-11-16T12:26:50.087Z,35.50
2017-11-16T12:29:20.524Z,40.53
2017-11-16T12:31:50.561Z,45.37
2017-11-16T12:34:20.663Z,41.33
2017-11-16T12:36:50.663Z,39.87
2017-11-16T12:39:20.767Z,40.10
2017-11-16T12:41:50.773Z,46.70
2017-11-16T12:44:20.758Z,44.77
2017-11-16T12:46:51.071Z,38.70
2017-11-16T12:49:20.951Z,39.17
2017-11-16T12:51:51.000Z,37.13
2017-11-16T12:54:21.119Z,42.57
2017-11-16T12:56:51.109Z,46.40
2017-11-16T12:59:21.214Z,40.20
2017-11-16T13:01:51.275Z,40.90
2017-11-16T13:04:21.227Z,38.90
2017-11-16T13:06:51.192Z,42.23
2017-11-16T13:09:21.378Z,39.80
2017-11-16T13:11:51.396Z,39.47
2017-11-16T13:14:21.611Z,38.50
2017-11-16T13:16:51.629Z,39.47
2017-11-16T13:19:21.658Z,36.43
2017-11-16T13:21:51.642Z,45.90
2017-11-16T13:24:21.671Z,39.73
2017-11-16T13:26:51.707Z,37.53
2017-11-16T13:29:21.800Z,37.07
2017-11-16T13:31:52.851Z,53.53
2017-11-16T13:34:22.414Z,43.93
2017-11-16T13:36:52.193Z,41.37
2017-11-16T13:39:22.139Z,44.17
2017-11-16T13:41:52.084Z,44.50
2017-11-16T13:44:22.136Z,40.47
2017-11-16T13:46:52.238Z,40.37
2017-11-16T13:49:22.266Z,45.00
2017-11-16T13:51:52.398Z,37.67
2017-11-16T13:54:22.380Z,70.77
2017-11-16T13:56:52.431Z,51.63
2017-11-16T13:59:22.541Z,48.23
2017-11-16T14:01:52.562Z,47.67
2017-11-16T14:04:22.686Z,50.13
2017-11-16T14:06:52.642Z,46.40
2017-11-16T14:09:22.788Z,51.23
2017-11-16T14:11:52.813Z,41.20
2017-11-16T14:14:22.857Z,43.13
2017-11-16T14:16:52.878Z,46.97
2017-11-16T14:19:22.947Z,43.70
2017-11-16T14:21:52.913Z,50.67
2017-11-16T14:24:22.998Z,49.47
2017-11-16T14:26:53.018Z,47.47
2017-11-16T14:29:23.073Z,48.53
2017-11-16T14:31:53.178Z,47.17
2017-11-16T14:34:23.130Z,46.53
2017-11-16T14:36:53.222Z,45.10
2017-11-16T14:39:23.266Z,54.27
2017-11-16T14:41:53.282Z,54.33
2017-11-16T14:44:23.397Z,50.20
2017-11-16T14:46:53.416Z,40.20
2017-11-16T14:49:23.433Z,48.93
2017-11-16T14:51:53.516Z,42.40
2017-11-16T14:54:24.187Z,47.73
2017-11-16T14:56:54.515Z,49.63
2017-11-16T14:59:24.086Z,43.67
2017-11-16T15:01:53.867Z,47.13
2017-11-16T15:04:23.692Z,45.60
2017-11-16T15:06:53.847Z,43.40
2017-11-16T15:09:23.867Z,43.63
2017-11-16T15:11:53.865Z,41.30
2017-11-16T15:14:23.945Z,40.17
2017-11-16T15:16:54.038Z,40.13
2017-11-16T15:19:24.034Z,45.50
2017-11-16T15:21:54.051Z,43.23
2017-11-16T15:24:24.332Z,45.13
2017-11-16T15:26:54.180Z,39.03
2017-11-16T15:29:24.255Z,42.53
2017-11-16T15:31:54.375Z,33.20
2017-11-16T15:34:24.343Z,40.27
2017-11-16T15:36:54.459Z,34.90
2017-11-16T15:39:24.502Z,35.90
2017-11-16T15:41:54.496Z,41.17
2017-11-16T15:44:24.634Z,36.67
2017-11-16T15:46:54.631Z,42.53
2017-11-16T15:49:24.746Z,35.57
2017-11-16T15:51:54.779Z,34.57
2017-11-16T15:54:24.881Z,32.57
2017-11-16T15:56:54.905Z,37.07
2017-11-16T15:59:24.913Z,36.03
2017-11-16T16:01:55.038Z,41.60
2017-11-16T16:04:25.089Z,35.07
2017-11-16T16:06:55.065Z,39.47
2017-11-16T16:09:25.010Z,34.43
2017-11-16T16:11:55.120Z,31.63
2017-11-16T16:14:25.206Z,28.53
2017-11-16T16:16:55.260Z,32.37
2017-11-16T16:19:25.357Z,27.63
2017-11-16T16:21:55.506Z,34.83
2017-11-16T16:24:25.534Z,34.30
2017-11-16T16:26:55.584Z,38.10
2017-11-16T16:29:25.658Z,39.13
2017-11-16T16:31:55.595Z,27.23
2017-11-16T16:34:25.670Z,36.33
2017-11-16T16:36:56.305Z,31.20
2017-11-16T16:39:25.921Z,32.17
2017-11-16T16:41:55.676Z,32.07
2017-11-16T16:44:25.742Z,33.03
2017-11-16T16:46:55.990Z,31.83
2017-11-16T16:49:25.920Z,27.20
2017-11-16T16:51:55.955Z,31.00
2017-11-16T16:54:27.073Z,33.60
2017-11-16T16:56:56.680Z,31.77
2017-11-16T16:59:26.314Z,32.17
2017-11-16T17:01:56.811Z,28.87
2017-11-16T17:04:26.625Z,27.27
2017-11-16T17:06:56.359Z,27.40
2017-11-16T17:09:26.426Z,29.67
2017-11-16T17:11:56.401Z,27.37
2017-11-16T17:14:26.819Z,22.63
2017-11-16T17:16:56.528Z,25.17
2017-11-16T17:19:26.586Z,26.77
2017-11-16T17:21:56.567Z,27.20
2017-11-16T17:24:27.179Z,29.40
2017-11-16T17:26:57.596Z,27.10
2017-11-16T17:29:27.233Z,25.03
2017-11-16T17:31:56.835Z,27.27
2017-11-16T17:34:26.895Z,23.37
2017-11-16T17:36:56.867Z,26.67
2017-11-16T17:39:26.921Z,29.30
2017-11-16T17:41:57.047Z,23.53
2017-11-16T17:44:27.031Z,25.13
2017-11-16T17:46:58.006Z,27.47
2017-11-16T17:49:27.602Z,29.93
2017-11-16T17:51:57.293Z,30.37
2017-11-16T17:54:27.399Z,31.67
2017-11-16T17:56:57.799Z,35.20
2017-11-16T17:59:27.571Z,34.10
2017-11-16T18:01:57.582Z,33.80
2017-11-16T18:04:27.794Z,31.10
2017-11-16T18:06:57.711Z,33.30
2017-11-16T18:09:27.739Z,30.40
2017-11-16T18:11:57.834Z,47.17
2017-11-16T18:14:27.758Z,41.57
2017-11-16T18:16:58.210Z,39.27
2017-11-16T18:19:27.848Z,39.00
2017-11-16T18:22:00.329Z,33.93
2017-11-16T18:24:30.704Z,41.97
2017-11-16T18:27:00.507Z,34.17
2017-11-16T18:29:30.473Z,31.03
2017-11-16T18:32:01.676Z,34.90
2017-11-16T18:34:31.814Z,35.20
2017-11-16T18:37:02.777Z,35.67
2017-11-16T18:39:33.013Z,38.47
2017-11-16T18:42:03.053Z,35.37
2017-11-16T18:44:33.601Z,36.80
2017-11-16T18:47:03.540Z,39.23
2017-11-16T18:49:33.611Z,43.17
2017-11-16T18:52:03.565Z,34.40
2017-11-16T18:54:34.618Z,34.97
2017-11-16T18:57:04.220Z,33.73
2017-11-16T18:59:34.063Z,31.73
2017-11-16T19:02:04.166Z,32.37
2017-11-16T19:04:34.787Z,34.00
2017-11-16T19:07:05.401Z,32.17
2017-11-16T19:09:35.286Z,35.43
2017-11-16T19:12:05.074Z,51.60
2017-11-16T19:14:34.956Z,36.37
2017-11-16T19:17:04.737Z,33.10
2017-11-16T19:19:35.538Z,33.33
2017-11-16T19:22:05.299Z,38.53
2017-11-16T19:24:36.131Z,36.97
2017-11-16T19:27:06.230Z,34.97
2017-11-16T19:29:37.109Z,37.27
2017-11-16T19:32:09.583Z,37.67
2017-11-16T19:34:40.829Z,32.83
2017-11-16T19:37:14.977Z,36.27
2017-11-16T19:39:46.244Z,37.33
2017-11-16T19:42:16.711Z,42.20
2017-11-16T19:44:46.362Z,36.53
2017-11-16T19:47:16.058Z,35.13
2017-11-16T19:49:45.717Z,36.90
2017-11-16T19:52:15.324Z,40.63
2017-11-16T19:54:45.281Z,40.97
2017-11-16T19:57:15.209Z,34.30
2017-11-16T19:59:45.281Z,33.53
2017-11-16T20:02:15.462Z,36.07
2017-11-16T20:04:45.403Z,33.60
2017-11-16T20:07:15.413Z,34.70
2017-11-16T20:09:45.651Z,38.80
2017-11-16T20:12:15.619Z,33.67
2017-11-16T20:14:45.488Z,34.17
2017-11-16T20:17:16.329Z,34.47
2017-11-16T20:19:45.924Z,32.73
2017-11-16T20:22:15.739Z,36.07
2017-11-16T20:24:46.799Z,32.83
2017-11-16T20:27:16.433Z,36.67
2017-11-16T20:29:46.105Z,36.30
2017-11-16T20:32:15.943Z,37.77
2017-11-16T20:34:45.978Z,38.00
2017-11-16T20:37:32.906Z,37.80
2017-11-16T20:40:10.217Z,36.63
2017-11-16T20:42:42.757Z,34.87
2017-11-16T20:45:30.231Z,33.77
2017-11-16T20:48:15.294Z,35.27
2017-11-16T20:50:50.803Z,37.53
2017-11-16T20:53:23.867Z,39.40
2017-11-16T20:55:53.645Z,32.50
2017-11-16T20:58:23.688Z,33.10
2017-11-16T21:00:54.178Z,37.30
2017-11-16T21:03:23.912Z,36.07
2017-11-16T21:05:53.812Z,33.77
2017-11-16T21:08:23.822Z,38.67
2017-11-16T21:10:53.934Z,40.90
2017-11-16T21:13:24.001Z,37.13
2017-11-16T21:15:54.044Z,35.90
2017-11-16T21:18:24.247Z,37.47
2017-11-16T21:20:54.112Z,37.43
2017-11-16T21:23:24.266Z,39.43
2017-11-16T21:25:54.278Z,38.33
2017-11-16T21:28:24.271Z,37.47
2017-11-16T21:30:54.805Z,33.83
2017-11-16T21:33:24.599Z,33.27
2017-11-16T21:35:55.283Z,34.67
2017-11-16T21:38:24.985Z,34.50
2017-11-16T21:40:54.781Z,34.93
2017-11-16T21:43:24.839Z,35.87
2017-11-16T21:45:54.775Z,39.13
2017-11-16T21:48:24.817Z,38.97
2017-11-16T21:50:54.973Z,41.73
2017-11-16T21:53:24.923Z,44.47
2017-11-16T21:55:54.907Z,38.80
2017-11-16T21:58:25.026Z,39.00
2017-11-16T22:00:55.089Z,39.90
2017-11-16T22:03:25.492Z,38.10
2017-11-16T22:05:55.142Z,38.70
2017-11-16T22:08:25.300Z,39.43
2017-11-16T22:10:55.759Z,43.57
2017-11-16T22:13:26.219Z,40.60
2017-11-16T22:15:56.178Z,43.00
2017-11-16T22:18:26.796Z,39.77
2017-11-16T22:20:58.912Z,40.33
2017-11-16T22:23:28.782Z,43.07
2017-11-16T22:25:58.988Z,44.37
2017-11-16T22:28:30.856Z,41.57
2017-11-16T22:31:02.746Z,41.73
2017-11-16T22:33:33.516Z,43.33
2017-11-16T22:36:04.397Z,49.97
2017-11-16T22:38:35.731Z,42.87
2017-11-16T22:41:06.673Z,43.97
2017-11-16T22:43:36.623Z,38.80
2017-11-16T22:46:07.240Z,37.80
2017-11-16T22:48:39.812Z,40.87
2017-11-16T22:51:10.862Z,42.90
2017-11-16T22:53:41.544Z,41.40
2017-11-16T22:56:12.103Z,47.60
2017-11-16T22:58:43.381Z,43.97
2017-11-16T23:01:14.423Z,47.13
2017-11-16T23:03:48.371Z,44.73
2017-11-16T23:06:22.692Z,45.03
2017-11-16T23:08:53.977Z,45.10
2017-11-16T23:11:25.045Z,39.37
2017-11-16T23:13:55.458Z,43.83
2017-11-16T23:16:25.330Z,42.83
2017-11-16T23:18:54.990Z,42.37
2017-11-16T23:21:24.898Z,36.20
2017-11-16T23:23:54.729Z,39.77
2017-11-16T23:26:24.498Z,44.20
2017-11-16T23:28:54.836Z,45.03
2017-11-16T23:31:24.782Z,43.80
2017-11-16T23:33:54.866Z,45.30
2017-11-16T23:36:24.687Z,39.00
2017-11-16T23:38:54.840Z,41.27
2017-11-16T23:41:25.617Z,44.67
2017-11-16T23:43:55.231Z,43.53
2017-11-16T23:46:25.271Z,42.93
2017-11-16T23:48:55.349Z,41.43
2017-11-16T23:51:26.000Z,42.87
2017-11-16T23:53:55.625Z,43.97
2017-11-16T23:56:25.520Z,53.87
2017-11-16T23:58:56.523Z,42.60
